sensor_id;sensor_type;location;lat;lon;timestamp;pressure;altitude;pressure_sealevel;temperature;humidity
71643;BME280;59438;45.014;39.006;2023-02-13T00:00:43;102180.03;;;-0.98;74.66
71643;BME280;59438;45.014;39.006;2023-02-13T00:03:09;102188.69;;;-0.96;74.35
71643;BME280;59438;45.014;39.006;2023-02-13T00:05:36;102181.63;;;-1.02;74.64
71643;BME280;59438;45.014;39.006;2023-02-13T00:08:02;102197.31;;;-0.95;74.26
71643;BME280;59438;45.014;39.006;2023-02-13T00:10:29;102193.84;;;-0.96;74.38
71643;BME280;59438;45.014;39.006;2023-02-13T00:12:56;102184.19;;;-1.02;74.54
71643;BME280;59438;45.014;39.006;2023-02-13T00:15:23;102198.09;;;-0.98;74.28
71643;BME280;59438;45.014;39.006;2023-02-13T00:17:49;102186.56;;;-1.08;74.49
71643;BME280;59438;45.014;39.006;2023-02-13T00:20:16;102183.38;;;-1.00;74.45
71643;BME280;59438;45.014;39.006;2023-02-13T00:22:42;102200.66;;;-0.98;74.47
71643;BME280;59438;45.014;39.006;2023-02-13T00:25:08;102167.50;;;-1.13;74.50
71643;BME280;59438;45.014;39.006;2023-02-13T00:27:35;102178.75;;;-1.11;74.40
71643;BME280;59438;45.014;39.006;2023-02-13T00:30:04;102197.09;;;-1.02;74.03
71643;BME280;59438;45.014;39.006;2023-02-13T00:32:30;102208.34;;;-0.99;74.35
71643;BME280;59438;45.014;39.006;2023-02-13T00:34:57;102203.19;;;-0.99;74.17
71643;BME280;59438;45.014;39.006;2023-02-13T00:37:23;102197.88;;;-1.04;74.09
71643;BME280;59438;45.014;39.006;2023-02-13T00:39:50;102179.47;;;-1.15;74.31
71643;BME280;59438;45.014;39.006;2023-02-13T00:42:16;102187.13;;;-1.16;74.26
71643;BME280;59438;45.014;39.006;2023-02-13T00:44:42;102204.91;;;-1.00;74.08
71643;BME280;59438;45.014;39.006;2023-02-13T00:47:10;102212.50;;;-1.03;74.29
71643;BME280;59438;45.014;39.006;2023-02-13T00:49:37;102191.66;;;-1.09;74.24
71643;BME280;59438;45.014;39.006;2023-02-13T00:52:03;102201.31;;;-1.04;73.76
71643;BME280;59438;45.014;39.006;2023-02-13T00:54:29;102208.19;;;-1.04;73.90
71643;BME280;59438;45.014;39.006;2023-02-13T00:56:56;102222.88;;;-1.02;74.21
71643;BME280;59438;45.014;39.006;2023-02-13T00:59:22;102213.34;;;-1.04;74.14
71643;BME280;59438;45.014;39.006;2023-02-13T01:01:48;102215.81;;;-1.07;73.61
71643;BME280;59438;45.014;39.006;2023-02-13T01:04:16;102214.13;;;-1.07;73.79
71643;BME280;59438;45.014;39.006;2023-02-13T01:06:43;102195.53;;;-1.22;73.74
71643;BME280;59438;45.014;39.006;2023-02-13T01:09:09;102212.34;;;-1.08;74.01
71643;BME280;59438;45.014;39.006;2023-02-13T01:11:36;102215.78;;;-1.09;73.74
71643;BME280;59438;45.014;39.006;2023-02-13T01:14:02;102213.19;;;-1.09;73.90
71643;BME280;59438;45.014;39.006;2023-02-13T01:16:28;102211.50;;;-1.08;73.72
71643;BME280;59438;45.014;39.006;2023-02-13T01:18:55;102209.78;;;-1.08;73.72
71643;BME280;59438;45.014;39.006;2023-02-13T01:21:23;102214.13;;;-1.07;73.67
71643;BME280;59438;45.014;39.006;2023-02-13T01:23:49;102223.59;;;-1.06;73.64
71643;BME280;59438;45.014;39.006;2023-02-13T01:26:18;102220.97;;;-1.07;73.61
71643;BME280;59438;45.014;39.006;2023-02-13T01:28:44;102234.75;;;-1.07;73.94
71643;BME280;59438;45.014;39.006;2023-02-13T01:31:11;102222.47;;;-1.14;73.94
71643;BME280;59438;45.014;39.006;2023-02-13T01:33:37;102234.53;;;-1.13;73.96
71643;BME280;59438;45.014;39.006;2023-02-13T01:36:09;102238.72;;;-1.16;73.56
71643;BME280;59438;45.014;39.006;2023-02-13T01:38:37;102236.78;;;-1.22;73.72
71643;BME280;59438;45.014;39.006;2023-02-13T01:41:04;102241.13;;;-1.21;73.95
71643;BME280;59438;45.014;39.006;2023-02-13T01:43:46;102248.88;;;-1.21;73.14
71643;BME280;59438;45.014;39.006;2023-02-13T01:48:48;102230.47;;;-1.30;73.90
71643;BME280;59438;45.014;39.006;2023-02-13T01:51:18;102248.81;;;-1.23;73.56
71643;BME280;59438;45.014;39.006;2023-02-13T01:53:51;102254.81;;;-1.22;73.43
71643;BME280;59438;45.014;39.006;2023-02-13T01:56:24;102261.75;;;-1.21;73.53
71643;BME280;59438;45.014;39.006;2023-02-13T01:59:00;102253.72;;;-1.29;73.26
71643;BME280;59438;45.014;39.006;2023-02-13T02:01:28;102264.34;;;-1.21;73.81
71643;BME280;59438;45.014;39.006;2023-02-13T02:03:57;102238.47;;;-1.47;73.67
71643;BME280;59438;45.014;39.006;2023-02-13T02:06:27;102279.81;;;-1.21;73.58
71643;BME280;59438;45.014;39.006;2023-02-13T02:09:08;102287.63;;;-1.18;73.19
71643;BME280;59438;45.014;39.006;2023-02-13T02:11:41;102276.78;;;-1.33;72.97
71643;BME280;59438;45.014;39.006;2023-02-13T02:14:11;102263.81;;;-1.35;73.77
71643;BME280;59438;45.014;39.006;2023-02-13T02:16:37;102298.72;;;-1.20;73.53
71643;BME280;59438;45.014;39.006;2023-02-13T02:19:04;102295.22;;;-1.23;73.37
71643;BME280;59438;45.014;39.006;2023-02-13T02:21:53;102277.72;;;-1.31;72.63
71643;BME280;59438;45.014;39.006;2023-02-13T02:27:43;102303.09;;;-1.18;73.48
71643;BME280;59438;45.014;39.006;2023-02-13T02:33:32;102301.16;;;-1.25;73.00
71643;BME280;59438;45.014;39.006;2023-02-13T02:36:16;102305.41;;;-1.26;73.19
71643;BME280;59438;45.014;39.006;2023-02-13T02:39:00;102292.19;;;-1.35;73.18
71643;BME280;59438;45.014;39.006;2023-02-13T02:41:37;102269.22;;;-1.51;73.08
71643;BME280;59438;45.014;39.006;2023-02-13T02:44:20;102284.75;;;-1.50;72.92
71643;BME280;59438;45.014;39.006;2023-02-13T02:47:00;102306.72;;;-1.37;73.00
71643;BME280;59438;45.014;39.006;2023-02-13T02:49:35;102306.78;;;-1.35;73.35
71643;BME280;59438;45.014;39.006;2023-02-13T02:52:05;102319.59;;;-1.37;73.31
71643;BME280;59438;45.014;39.006;2023-02-13T02:54:39;102315.28;;;-1.38;73.35
71643;BME280;59438;45.014;39.006;2023-02-13T02:57:13;102302.09;;;-1.46;73.00
71643;BME280;59438;45.014;39.006;2023-02-13T02:59:41;102302.25;;;-1.41;73.33
71643;BME280;59438;45.014;39.006;2023-02-13T03:02:09;102315.44;;;-1.33;73.32
71643;BME280;59438;45.014;39.006;2023-02-13T03:04:39;102318.97;;;-1.31;73.05
71643;BME280;59438;45.014;39.006;2023-02-13T03:07:08;102318.13;;;-1.30;72.75
71643;BME280;59438;45.014;39.006;2023-02-13T03:09:39;102323.25;;;-1.32;72.80
71643;BME280;59438;45.014;39.006;2023-02-13T03:12:07;102286.16;;;-1.58;73.37
71643;BME280;59438;45.014;39.006;2023-02-13T03:14:34;102328.44;;;-1.30;73.10
71643;BME280;59438;45.014;39.006;2023-02-13T03:17:01;102328.44;;;-1.30;73.09
71643;BME280;59438;45.014;39.006;2023-02-13T03:19:40;102338.75;;;-1.30;72.61
71643;BME280;59438;45.014;39.006;2023-02-13T03:22:20;102332.66;;;-1.32;72.47
71643;BME280;59438;45.014;39.006;2023-02-13T03:24:59;102314.16;;;-1.45;72.71
71643;BME280;59438;45.014;39.006;2023-02-13T03:27:36;102301.97;;;-1.49;72.77
71643;BME280;59438;45.014;39.006;2023-02-13T03:30:15;102342.19;;;-1.30;72.29
71643;BME280;59438;45.014;39.006;2023-02-13T03:32:50;102340.47;;;-1.31;72.71
71643;BME280;59438;45.014;39.006;2023-02-13T03:35:29;102336.25;;;-1.29;72.80
71643;BME280;59438;45.014;39.006;2023-02-13T03:38:03;102343.09;;;-1.29;72.23
71643;BME280;59438;45.014;39.006;2023-02-13T03:40:36;102322.94;;;-1.39;72.84
71643;BME280;59438;45.014;39.006;2023-02-13T03:43:08;102354.13;;;-1.33;72.45
71643;BME280;59438;45.014;39.006;2023-02-13T03:45:39;102360.06;;;-1.34;72.98
71643;BME280;59438;45.014;39.006;2023-02-13T03:48:08;102341.56;;;-1.47;72.88
71643;BME280;59438;45.014;39.006;2023-02-13T03:50:40;102353.75;;;-1.43;72.37
71643;BME280;59438;45.014;39.006;2023-02-13T03:53:10;102348.19;;;-1.53;72.91
71643;BME280;59438;45.014;39.006;2023-02-13T03:55:41;102373.72;;;-1.37;72.52
71643;BME280;59438;45.014;39.006;2023-02-13T03:58:14;102356.09;;;-1.49;73.01
71643;BME280;59438;45.014;39.006;2023-02-13T04:00:47;102380.78;;;-1.33;72.79
71643;BME280;59438;45.014;39.006;2023-02-13T04:03:19;102365.66;;;-1.46;72.47
71643;BME280;59438;45.014;39.006;2023-02-13T04:05:55;102328.03;;;-1.64;72.61
71643;BME280;59438;45.014;39.006;2023-02-13T04:08:23;102385.22;;;-1.29;73.17
71643;BME280;59438;45.014;39.006;2023-02-13T04:10:52;102389.44;;;-1.31;72.41
71643;BME280;59438;45.014;39.006;2023-02-13T04:13:23;102394.69;;;-1.28;72.70
71643;BME280;59438;45.014;39.006;2023-02-13T04:15:55;102401.56;;;-1.28;72.95
71643;BME280;59438;45.014;39.006;2023-02-13T04:18:24;102390.06;;;-1.36;72.52
71643;BME280;59438;45.014;39.006;2023-02-13T04:20:53;102404.06;;;-1.30;72.80
71643;BME280;59438;45.014;39.006;2023-02-13T04:23:20;102412.56;;;-1.32;72.99
71643;BME280;59438;45.014;39.006;2023-02-13T04:25:48;102382.38;;;-1.57;72.47
71643;BME280;59438;45.014;39.006;2023-02-13T04:28:15;102392.16;;;-1.49;72.91
71643;BME280;59438;45.014;39.006;2023-02-13T04:30:42;102389.31;;;-1.56;72.70
71643;BME280;59438;45.014;39.006;2023-02-13T04:33:08;102413.94;;;-1.42;72.53
71643;BME280;59438;45.014;39.006;2023-02-13T04:35:34;102418.97;;;-1.45;72.69
71643;BME280;59438;45.014;39.006;2023-02-13T04:38:02;102427.81;;;-1.38;72.69
71643;BME280;59438;45.014;39.006;2023-02-13T04:40:29;102438.94;;;-1.39;72.77
71643;BME280;59438;45.014;39.006;2023-02-13T04:42:55;102440.66;;;-1.40;73.07
71643;BME280;59438;45.014;39.006;2023-02-13T04:45:22;102398.31;;;-1.68;72.65
71643;BME280;59438;45.014;39.006;2023-02-13T04:47:52;102440.44;;;-1.45;73.03
71643;BME280;59438;45.014;39.006;2023-02-13T04:50:18;102400.00;;;-1.68;72.83
71643;BME280;59438;45.014;39.006;2023-02-13T04:52:45;102431.84;;;-1.45;73.04
71643;BME280;59438;45.014;39.006;2023-02-13T04:55:13;102428.69;;;-1.59;72.92
71643;BME280;59438;45.014;39.006;2023-02-13T04:57:39;102452.47;;;-1.45;72.93
71643;BME280;59438;45.014;39.006;2023-02-13T05:00:07;102409.72;;;-1.61;72.89
71643;BME280;59438;45.014;39.006;2023-02-13T05:02:33;102444.66;;;-1.47;72.92
71643;BME280;59438;45.014;39.006;2023-02-13T05:05:00;102428.94;;;-1.53;72.92
71643;BME280;59438;45.014;39.006;2023-02-13T05:07:26;102448.19;;;-1.45;73.11
71643;BME280;59438;45.014;39.006;2023-02-13T05:09:52;102449.81;;;-1.47;72.96
71643;BME280;59438;45.014;39.006;2023-02-13T05:12:20;102463.78;;;-1.42;72.66
71643;BME280;59438;45.014;39.006;2023-02-13T05:14:47;102458.56;;;-1.43;73.24
71643;BME280;59438;45.014;39.006;2023-02-13T05:17:13;102477.63;;;-1.39;73.08
71643;BME280;59438;45.014;39.006;2023-02-13T05:19:39;102466.38;;;-1.42;72.95
71643;BME280;59438;45.014;39.006;2023-02-13T05:22:06;102475.03;;;-1.39;72.94
71643;BME280;59438;45.014;39.006;2023-02-13T05:24:33;102480.44;;;-1.33;72.85
71643;BME280;59438;45.014;39.006;2023-02-13T05:26:59;102481.41;;;-1.30;72.42
71643;BME280;59438;45.014;39.006;2023-02-13T05:29:27;102480.69;;;-1.27;72.36
71643;BME280;59438;45.014;39.006;2023-02-13T05:31:55;102481.63;;;-1.25;72.74
71643;BME280;59438;45.014;39.006;2023-02-13T05:34:23;102457.25;;;-1.33;72.54
71643;BME280;59438;45.014;39.006;2023-02-13T05:36:50;102486.03;;;-1.23;72.72
71643;BME280;59438;45.014;39.006;2023-02-13T05:39:17;102493.81;;;-1.21;72.99
71643;BME280;59438;45.014;39.006;2023-02-13T05:41:43;102483.38;;;-1.24;72.59
71643;BME280;59438;45.014;39.006;2023-02-13T05:44:10;102498.97;;;-1.21;72.88
71643;BME280;59438;45.014;39.006;2023-02-13T05:46:39;102503.25;;;-1.22;72.56
71643;BME280;59438;45.014;39.006;2023-02-13T05:49:07;102499.59;;;-1.27;72.69
71643;BME280;59438;45.014;39.006;2023-02-13T05:51:34;102507.44;;;-1.24;72.47
71643;BME280;59438;45.014;39.006;2023-02-13T05:54:00;102498.75;;;-1.27;72.54
71643;BME280;59438;45.014;39.006;2023-02-13T05:56:26;102510.03;;;-1.24;72.25
71643;BME280;59438;45.014;39.006;2023-02-13T05:58:55;102508.47;;;-1.20;72.29
71643;BME280;59438;45.014;39.006;2023-02-13T06:01:22;102509.41;;;-1.18;72.47
71643;BME280;59438;45.014;39.006;2023-02-13T06:03:50;102519.09;;;-1.12;71.89
71643;BME280;59438;45.014;39.006;2023-02-13T06:06:17;102527.78;;;-1.10;72.24
71643;BME280;59438;45.014;39.006;2023-02-13T06:08:43;102489.38;;;-1.25;72.04
71643;BME280;59438;45.014;39.006;2023-02-13T06:11:10;102529.66;;;-1.06;71.94
71643;BME280;59438;45.014;39.006;2023-02-13T06:13:36;102532.31;;;-1.05;71.74
71643;BME280;59438;45.014;39.006;2023-02-13T06:16:03;102513.06;;;-1.13;72.05
71643;BME280;59438;45.014;39.006;2023-02-13T06:18:29;102535.81;;;-1.03;71.95
71643;BME280;59438;45.014;39.006;2023-02-13T06:20:57;102507.84;;;-1.14;71.74
71643;BME280;59438;45.014;39.006;2023-02-13T06:23:23;102508.63;;;-1.15;71.48
71643;BME280;59438;45.014;39.006;2023-02-13T06:25:50;102535.94;;;-0.99;71.52
71643;BME280;59438;45.014;39.006;2023-02-13T06:28:16;102546.41;;;-0.95;71.62
71643;BME280;59438;45.014;39.006;2023-02-13T06:30:42;102541.34;;;-0.93;71.51
71643;BME280;59438;45.014;39.006;2023-02-13T06:33:09;102507.22;;;-1.09;71.14
71643;BME280;59438;45.014;39.006;2023-02-13T06:35:35;102547.56;;;-0.88;71.63
71643;BME280;59438;45.014;39.006;2023-02-13T06:38:03;102540.63;;;-0.89;71.02
71643;BME280;59438;45.014;39.006;2023-02-13T06:40:29;102540.63;;;-0.89;71.05
71643;BME280;59438;45.014;39.006;2023-02-13T06:42:56;102538.13;;;-0.88;70.85
71643;BME280;59438;45.014;39.006;2023-02-13T06:45:22;102543.16;;;-0.91;71.07
71643;BME280;59438;45.014;39.006;2023-02-13T06:47:49;102549.84;;;-0.96;70.98
71643;BME280;59438;45.014;39.006;2023-02-13T06:50:16;102482.78;;;-1.39;70.79
71643;BME280;59438;45.014;39.006;2023-02-13T06:52:46;102555.44;;;-1.06;70.76
71643;BME280;59438;45.014;39.006;2023-02-13T06:55:14;102541.38;;;-1.14;70.65
71643;BME280;59438;45.014;39.006;2023-02-13T06:57:41;102544.88;;;-1.12;71.21
71643;BME280;59438;45.014;39.006;2023-02-13T07:00:08;102558.09;;;-1.05;71.13
71643;BME280;59438;45.014;39.006;2023-02-13T07:02:36;102565.13;;;-1.00;70.72
71643;BME280;59438;45.014;39.006;2023-02-13T07:05:02;102556.72;;;-0.96;70.99
71643;BME280;59438;45.014;39.006;2023-02-13T07:07:32;102561.34;;;-0.88;70.56
71643;BME280;59438;45.014;39.006;2023-02-13T07:09:58;102558.94;;;-0.83;70.99
71643;BME280;59438;45.014;39.006;2023-02-13T07:12:26;102572.84;;;-0.79;70.17
71643;BME280;59438;45.014;39.006;2023-02-13T07:14:52;102526.47;;;-0.99;70.83
71643;BME280;59438;45.014;39.006;2023-02-13T07:17:19;102560.03;;;-0.78;70.74
71643;BME280;59438;45.014;39.006;2023-02-13T07:19:45;102567.00;;;-0.75;70.80
71643;BME280;59438;45.014;39.006;2023-02-13T07:22:11;102553.84;;;-0.82;70.48
71643;BME280;59438;45.014;39.006;2023-02-13T07:24:38;102557.31;;;-0.81;70.40
71643;BME280;59438;45.014;39.006;2023-02-13T07:27:04;102594.03;;;-0.66;70.50
71643;BME280;59438;45.014;39.006;2023-02-13T07:29:32;102597.69;;;-0.61;70.08
71643;BME280;59438;45.014;39.006;2023-02-13T07:31:58;102582.88;;;-0.65;70.30
71643;BME280;59438;45.014;39.006;2023-02-13T07:34:25;102593.59;;;-0.55;70.19
71643;BME280;59438;45.014;39.006;2023-02-13T07:36:51;102593.38;;;-0.60;69.50
71643;BME280;59438;45.014;39.006;2023-02-13T07:39:17;102586.81;;;-0.74;70.14
71643;BME280;59438;45.014;39.006;2023-02-13T07:41:44;102598.81;;;-0.75;69.98
71643;BME280;59438;45.014;39.006;2023-02-13T07:44:10;102601.84;;;-0.85;70.38
71643;BME280;59438;45.014;39.006;2023-02-13T07:46:38;102608.56;;;-0.90;70.35
71643;BME280;59438;45.014;39.006;2023-02-13T07:49:04;102605.75;;;-0.95;70.31
71643;BME280;59438;45.014;39.006;2023-02-13T07:51:31;102599.22;;;-1.08;70.21
71643;BME280;59438;45.014;39.006;2023-02-13T07:53:57;102616.72;;;-1.00;69.94
71643;BME280;59438;45.014;39.006;2023-02-13T07:56:23;102598.22;;;-1.11;70.02
71643;BME280;59438;45.014;39.006;2023-02-13T07:58:50;102608.78;;;-1.05;70.06
71643;BME280;59438;45.014;39.006;2023-02-13T08:01:16;102607.03;;;-1.06;69.97
71643;BME280;59438;45.014;39.006;2023-02-13T08:03:47;102603.63;;;-1.05;69.30
71643;BME280;59438;45.014;39.006;2023-02-13T08:06:13;102619.56;;;-0.94;69.39
71643;BME280;59438;45.014;39.006;2023-02-13T08:08:39;102602.81;;;-1.04;69.32
71643;BME280;59438;45.014;39.006;2023-02-13T08:11:11;102629.22;;;-0.89;69.28
71643;BME280;59438;45.014;39.006;2023-02-13T08:13:43;102625.00;;;-0.87;69.55
71643;BME280;59438;45.014;39.006;2023-02-13T08:16:10;102628.50;;;-0.86;69.42
71643;BME280;59438;45.014;39.006;2023-02-13T08:18:36;102626.78;;;-0.86;69.20
71643;BME280;59438;45.014;39.006;2023-02-13T08:21:04;102594.31;;;-1.02;69.23
71643;BME280;59438;45.014;39.006;2023-02-13T08:23:31;102628.75;;;-0.80;69.58
71643;BME280;59438;45.014;39.006;2023-02-13T08:25:59;102618.94;;;-0.45;69.86
71643;BME280;59438;45.014;39.006;2023-02-13T08:28:25;102624.88;;;0.22;69.32
71643;BME280;59438;45.014;39.006;2023-02-13T08:30:51;102602.56;;;1.00;68.77
71643;BME280;59438;45.014;39.006;2023-02-13T08:33:18;102608.59;;;2.13;67.13
71643;BME280;59438;45.014;39.006;2023-02-13T08:35:44;102621.97;;;2.93;66.37
71643;BME280;59438;45.014;39.006;2023-02-13T08:38:12;102625.38;;;3.27;64.86
71643;BME280;59438;45.014;39.006;2023-02-13T08:40:39;102621.31;;;3.02;64.38
71643;BME280;59438;45.014;39.006;2023-02-13T08:43:05;102636.75;;;2.62;65.21
71643;BME280;59438;45.014;39.006;2023-02-13T08:45:32;102637.91;;;2.12;65.21
71643;BME280;59438;45.014;39.006;2023-02-13T08:47:59;102623.44;;;1.59;65.21
71643;BME280;59438;45.014;39.006;2023-02-13T08:50:26;102626.72;;;1.27;65.38
71643;BME280;59438;45.014;39.006;2023-02-13T08:52:52;102616.94;;;0.91;66.55
71643;BME280;59438;45.014;39.006;2023-02-13T08:55:20;102629.97;;;0.68;66.62
71643;BME280;59438;45.014;39.006;2023-02-13T08:57:47;102625.53;;;0.40;67.20
71643;BME280;59438;45.014;39.006;2023-02-13T09:02:49;102619.97;;;0.29;66.83
71643;BME280;59438;45.014;39.006;2023-02-13T09:05:15;102609.88;;;0.35;67.74
71643;BME280;59438;45.014;39.006;2023-02-13T09:07:42;102621.22;;;0.65;67.73
71643;BME280;59438;45.014;39.006;2023-02-13T09:10:09;102612.38;;;0.84;67.58
71643;BME280;59438;45.014;39.006;2023-02-13T09:12:36;102635.56;;;1.33;69.01
71643;BME280;59438;45.014;39.006;2023-02-13T09:15:03;102619.66;;;1.50;67.43
71643;BME280;59438;45.014;39.006;2023-02-13T09:17:30;102607.22;;;1.38;67.21
71643;BME280;59438;45.014;39.006;2023-02-13T09:19:56;102626.84;;;1.31;66.54
71643;BME280;59438;45.014;39.006;2023-02-13T09:22:23;102629.78;;;1.15;66.76
71643;BME280;59438;45.014;39.006;2023-02-13T09:24:49;102620.69;;;1.00;66.66
71643;BME280;59438;45.014;39.006;2023-02-13T09:27:15;102622.78;;;0.85;66.66
71643;BME280;59438;45.014;39.006;2023-02-13T09:29:43;102601.13;;;0.57;66.37
71643;BME280;59438;45.014;39.006;2023-02-13T09:32:09;102594.59;;;0.43;66.75
71643;BME280;59438;45.014;39.006;2023-02-13T09:34:36;102578.22;;;0.18;66.77
71643;BME280;59438;45.014;39.006;2023-02-13T09:37:02;102605.94;;;0.23;66.35
71643;BME280;59438;45.014;39.006;2023-02-13T09:39:28;102619.47;;;0.15;66.54
71643;BME280;59438;45.014;39.006;2023-02-13T09:41:55;102614.09;;;0.09;66.50
71643;BME280;59438;45.014;39.006;2023-02-13T09:44:28;102603.59;;;0.05;67.07
71643;BME280;59438;45.014;39.006;2023-02-13T09:46:57;102608.03;;;0.09;66.73
71643;BME280;59438;45.014;39.006;2023-02-13T09:49:27;102587.56;;;-0.09;66.14
71643;BME280;59438;45.014;39.006;2023-02-13T09:51:56;102575.53;;;-0.09;66.85
71643;BME280;59438;45.014;39.006;2023-02-13T09:54:22;102582.84;;;0.03;67.46
71643;BME280;59438;45.014;39.006;2023-02-13T09:56:54;102602.91;;;0.10;66.41
71643;BME280;59438;45.014;39.006;2023-02-13T09:59:33;102603.09;;;0.15;64.39
71643;BME280;59438;45.014;39.006;2023-02-13T10:02:19;102554.59;;;-0.16;65.99
71643;BME280;59438;45.014;39.006;2023-02-13T10:04:57;102620.34;;;0.16;65.59
71643;BME280;59438;45.014;39.006;2023-02-13T10:07:33;102595.28;;;0.13;65.76
71643;BME280;59438;45.014;39.006;2023-02-13T10:10:08;102583.00;;;0.08;65.58
71643;BME280;59438;45.014;39.006;2023-02-13T10:12:55;102615.78;;;0.33;65.13
71643;BME280;59438;45.014;39.006;2023-02-13T10:15:30;102594.66;;;0.20;66.95
71643;BME280;59438;45.014;39.006;2023-02-13T10:18:04;102607.78;;;0.25;65.97
71643;BME280;59438;45.014;39.006;2023-02-13T10:20:34;102584.00;;;0.11;66.17
71643;BME280;59438;45.014;39.006;2023-02-13T10:23:16;102610.28;;;0.24;65.19
71643;BME280;59438;45.014;39.006;2023-02-13T10:25:47;102588.09;;;0.05;65.77
71643;BME280;59438;45.014;39.006;2023-02-13T10:28:25;102556.69;;;-0.06;64.83
71643;BME280;59438;45.014;39.006;2023-02-13T10:30:56;102611.81;;;0.18;66.20
71643;BME280;59438;45.014;39.006;2023-02-13T10:33:27;102609.38;;;0.22;65.80
71643;BME280;59438;45.014;39.006;2023-02-13T10:36:00;102614.75;;;0.28;65.42
71643;BME280;59438;45.014;39.006;2023-02-13T10:38:29;102598.38;;;0.27;65.60
71643;BME280;59438;45.014;39.006;2023-02-13T10:41:11;102625.53;;;0.40;64.52
71643;BME280;59438;45.014;39.006;2023-02-13T10:43:49;102623.09;;;0.45;65.96
71643;BME280;59438;45.014;39.006;2023-02-13T10:46:23;102591.50;;;0.28;65.29
71643;BME280;59438;45.014;39.006;2023-02-13T10:49:06;102602.91;;;0.34;64.82
71643;BME280;59438;45.014;39.006;2023-02-13T10:51:41;102582.09;;;0.30;65.25
71643;BME280;59438;45.014;39.006;2023-02-13T10:54:24;102628.41;;;0.48;64.68
71643;BME280;59438;45.014;39.006;2023-02-13T10:56:58;102610.09;;;0.43;64.73
71643;BME280;59438;45.014;39.006;2023-02-13T10:59:47;102610.03;;;0.40;64.73
71643;BME280;59438;45.014;39.006;2023-02-13T11:02:22;102581.72;;;0.19;65.73
71643;BME280;59438;45.014;39.006;2023-02-13T11:04:51;102606.34;;;0.33;65.72
71643;BME280;59438;45.014;39.006;2023-02-13T11:07:22;102600.06;;;0.27;65.02
71643;BME280;59438;45.014;39.006;2023-02-13T11:09:51;102612.22;;;0.29;65.23
71643;BME280;59438;45.014;39.006;2023-02-13T11:12:26;102618.84;;;0.23;64.48
71643;BME280;59438;45.014;39.006;2023-02-13T11:14:55;102630.25;;;0.28;65.30
71643;BME280;59438;45.014;39.006;2023-02-13T11:17:23;102591.41;;;0.02;65.33
71643;BME280;59438;45.014;39.006;2023-02-13T11:19:52;102624.00;;;0.21;65.05
71643;BME280;59438;45.014;39.006;2023-02-13T11:22:30;102590.66;;;0.05;64.43
71643;BME280;59438;45.014;39.006;2023-02-13T11:24:59;102621.72;;;0.30;65.44
71643;BME280;59438;45.014;39.006;2023-02-13T11:27:31;102581.53;;;0.14;64.81
71643;BME280;59438;45.014;39.006;2023-02-13T11:29:58;102636.09;;;0.46;65.46
71643;BME280;59438;45.014;39.006;2023-02-13T11:32:26;102631.78;;;0.47;66.29
71643;BME280;59438;45.014;39.006;2023-02-13T11:34:55;102638.91;;;0.52;65.69
71643;BME280;59438;45.014;39.006;2023-02-13T11:37:25;102632.78;;;0.50;65.03
71643;BME280;59438;45.014;39.006;2023-02-13T11:39:53;102603.63;;;0.30;65.58
71643;BME280;59438;45.014;39.006;2023-02-13T11:42:25;102645.78;;;0.52;65.12
71643;BME280;59438;45.014;39.006;2023-02-13T11:44:54;102615.03;;;0.35;65.59
71643;BME280;59438;45.014;39.006;2023-02-13T11:47:34;102650.31;;;0.59;66.46
71643;BME280;59438;45.014;39.006;2023-02-13T11:50:04;102653.84;;;0.61;65.49
71643;BME280;59438;45.014;39.006;2023-02-13T11:52:32;102650.16;;;0.54;65.58
71643;BME280;59438;45.014;39.006;2023-02-13T11:55:01;102647.53;;;0.53;66.08
71643;BME280;59438;45.014;39.006;2023-02-13T11:57:30;102638.91;;;0.52;65.81
71643;BME280;59438;45.014;39.006;2023-02-13T11:59:57;102652.97;;;0.60;66.19
71643;BME280;59438;45.014;39.006;2023-02-13T12:02:26;102647.94;;;0.65;65.38
71643;BME280;59438;45.014;39.006;2023-02-13T12:04:54;102657.56;;;0.69;65.12
71643;BME280;59438;45.014;39.006;2023-02-13T12:07:24;102648.81;;;0.66;63.88
71643;BME280;59438;45.014;39.006;2023-02-13T12:09:59;102657.53;;;0.68;63.25
71643;BME280;59438;45.014;39.006;2023-02-13T12:12:34;102653.06;;;0.64;64.44
71643;BME280;59438;45.014;39.006;2023-02-13T12:15:14;102659.16;;;0.66;64.38
71643;BME280;59438;45.014;39.006;2023-02-13T12:17:43;102656.56;;;0.64;64.95
71643;BME280;59438;45.014;39.006;2023-02-13T12:20:12;102654.78;;;0.63;65.03
71643;BME280;59438;45.014;39.006;2023-02-13T12:22:47;102651.75;;;0.51;63.81
71643;BME280;59438;45.014;39.006;2023-02-13T12:25:46;102658.88;;;0.56;63.21
71643;BME280;59438;45.014;39.006;2023-02-13T12:28:16;102663.09;;;0.54;64.67
71643;BME280;59438;45.014;39.006;2023-02-13T12:30:56;102660.56;;;0.56;64.16
71643;BME280;59438;45.014;39.006;2023-02-13T12:33:45;102658.88;;;0.56;64.01
71643;BME280;59438;45.014;39.006;2023-02-13T12:36:18;102628.78;;;0.34;64.77
71643;BME280;59438;45.014;39.006;2023-02-13T12:38:58;102663.38;;;0.62;64.24
71643;BME280;59438;45.014;39.006;2023-02-13T12:41:36;102659.16;;;0.64;63.83
71643;BME280;59438;45.014;39.006;2023-02-13T12:47:15;102655.34;;;0.80;63.32
71643;BME280;59438;45.014;39.006;2023-02-13T13:05:29;102646.03;;;1.11;61.89
71643;BME280;59438;45.014;39.006;2023-02-13T13:08:20;102623.78;;;0.90;60.33
71643;BME280;59438;45.014;39.006;2023-02-13T13:10:57;102659.78;;;1.08;61.56
71643;BME280;59438;45.014;39.006;2023-02-13T13:13:36;102666.41;;;1.00;61.35
71643;BME280;59438;45.014;39.006;2023-02-13T13:16:13;102669.72;;;0.96;61.86
71643;BME280;59438;45.014;39.006;2023-02-13T13:18:51;102660.19;;;0.95;62.10
71643;BME280;59438;45.014;39.006;2023-02-13T13:21:28;102663.66;;;0.95;62.21
71643;BME280;59438;45.014;39.006;2023-02-13T13:24:04;102671.22;;;0.89;62.62
71643;BME280;59438;45.014;39.006;2023-02-13T13:26:34;102659.00;;;0.85;62.60